Time;durP1;ratioP1;P1;durP2;ratioP2;P2;SDS_P1;SDS_P2;PMS_P1;PMS_P2;Temp;Humidity;BMP_temperature;BMP_pressure;BME280_temperature;BME280_humidity;BME280_pressure;Samples;Min_cycle;Max_cycle;Signal;HPM_P1;HPM_P2
2021/09/21 00:01:55;;;;;;;2.80;2.50;;;;;;;7.77;81.03;99241.42;116735;1200;22395;-61
2021/09/21 00:04:26;;;;;;;4.30;2.60;;;;;;;7.76;80.59;99244.27;116660;1200;137509;-61
2021/09/21 00:06:55;;;;;;;2.80;2.40;;;;;;;7.70;80.67;99244.06;116830;1199;22954;-61
2021/09/21 00:09:23;;;;;;;2.90;2.60;;;;;;;7.68;80.49;99244.29;116525;1200;139047;-61
2021/09/21 00:11:54;;;;;;;2.60;2.40;;;;;;;7.67;80.62;99246.11;116780;1199;23310;-61
2021/09/21 00:14:22;;;;;;;4.50;2.70;;;;;;;7.68;80.83;99243.95;116515;1200;138101;-61
2021/09/21 00:16:50;;;;;;;2.90;2.50;;;;;;;7.70;80.82;99244.21;116756;1199;23157;-61
2021/09/21 00:19:18;;;;;;;3.40;2.10;;;;;;;7.70;80.69;99248.30;116677;1200;22302;-61
2021/09/21 00:21:46;;;;;;;2.80;2.30;;;;;;;7.67;80.27;99245.95;116615;1200;138718;-60
2021/09/21 00:24:34;;;;;;;3.70;2.60;;;;;;;7.65;80.43;99246.80;116757;1200;22339;-61
2021/09/21 00:27:02;;;;;;;2.90;2.60;;;;;;;7.62;80.26;99245.49;116604;1199;138741;-61
2021/09/21 00:29:31;;;;;;;3.40;2.60;;;;;;;7.59;80.48;99246.85;116791;1200;22371;-61
2021/09/21 00:32:00;;;;;;;3.40;2.60;;;;;;;7.59;80.44;99245.95;116741;1199;22378;-61
2021/09/21 00:34:38;;;;;;;3.00;2.40;;;;;;;7.61;80.63;99244.19;116627;1193;137994;-61
2021/09/21 00:37:08;;;;;;;3.90;2.40;;;;;;;7.62;80.30;99246.33;116744;1200;23519;-62
2021/09/21 00:39:36;;;;;;;2.70;2.30;;;;;;;7.62;80.33;99247.03;116544;1200;139032;-62
2021/09/21 00:42:05;;;;;;;3.90;2.40;;;;;;;7.63;80.49;99245.09;116780;1199;23018;-61
2021/09/21 00:44:35;;;;;;;2.30;2.10;;;;;;;7.62;80.07;99236.98;116627;1199;139707;-62
2021/09/21 00:47:07;;;;;;;2.50;2.30;;;;;;;7.62;80.11;99242.58;113388;1199;25042;-62
2021/09/21 00:49:36;;;;;;;3.50;2.10;;;;;;;7.62;80.05;99248.21;112500;1200;22541;-62
2021/09/21 00:52:05;;;;;;;2.40;2.20;;;;;;;7.62;80.30;99246.59;116647;1200;138320;-63
2021/09/21 00:54:33;;;;;;;3.20;2.30;;;;;;;7.62;80.28;99248.44;116742;1200;22406;-62
2021/09/21 00:57:01;;;;;;;4.80;2.40;;;;;;;7.63;80.18;99252.64;116599;1200;137893;-62
2021/09/21 00:59:29;;;;;;;2.80;2.50;;;;;;;7.65;80.18;99253.20;116837;1199;23072;-62
2021/09/21 01:01:57;;;;;;;3.00;2.50;;;;;;;7.66;80.18;99249.46;116788;1193;22915;-62
2021/09/21 01:04:25;;;;;;;2.60;2.30;;;;;;;7.66;79.87;99253.21;116649;1194;137306;-62
2021/09/21 01:06:53;;;;;;;3.10;2.50;;;;;;;7.66;79.96;99254.84;116827;1200;22350;-62
2021/09/21 01:09:22;;;;;;;2.40;2.00;;;;;;;7.68;80.05;99254.33;116668;1200;137640;-62
2021/09/21 01:11:53;;;;;;;6.40;2.00;;;;;;;7.70;79.85;99256.47;116736;1199;22327;-62
2021/09/21 01:14:24;;;;;;;3.70;2.60;;;;;;;7.68;79.83;99258.19;116605;1200;137840;-62
2021/09/21 01:16:56;;;;;;;4.10;2.60;;;;;;;7.68;79.85;99264.56;116737;1199;22306;-62
2021/09/21 01:19:24;;;;;;;2.80;2.30;;;;;;;7.65;79.74;99263.38;116768;1199;22248;-63
2021/09/21 01:21:52;;;;;;;3.90;2.20;;;;;;;7.64;79.89;99259.54;116629;1199;137482;-61
2021/09/21 01:24:21;;;;;;;3.60;2.40;;;;;;;7.65;79.95;99260.02;116742;1200;22774;-61
2021/09/21 01:26:49;;;;;;;3.00;2.20;;;;;;;7.67;79.84;99259.29;116622;1200;140441;-61
2021/09/21 01:29:19;;;;;;;4.40;2.40;;;;;;;7.68;79.87;99259.80;116776;1199;22318;-62
2021/09/21 01:31:47;;;;;;;4.10;1.90;;;;;;;7.70;79.88;99259.89;116734;1199;22343;-61
2021/09/21 01:34:17;;;;;;;2.50;2.10;;;;;;;7.70;79.65;99261.30;116550;1200;137455;-62
2021/09/21 01:36:46;;;;;;;3.60;2.70;;;;;;;7.69;79.72;99264.21;116768;1199;22213;-61
2021/09/21 01:39:14;;;;;;;4.60;2.40;;;;;;;7.68;79.68;99263.21;116616;1199;138032;-61
2021/09/21 01:41:43;;;;;;;2.80;2.20;;;;;;;7.67;79.49;99262.66;116698;1199;23082;-62
2021/09/21 01:44:11;;;;;;;3.20;2.30;;;;;;;7.67;79.70;99266.30;116623;1200;137602;-62
2021/09/21 01:46:39;;;;;;;4.30;2.20;;;;;;;7.67;79.54;99261.25;116871;1199;23093;-61
2021/09/21 01:49:09;;;;;;;4.50;2.20;;;;;;;7.66;79.33;99265.89;116729;1199;22381;-62
2021/09/21 01:51:40;;;;;;;4.70;2.60;;;;;;;7.65;79.37;99264.41;116596;1199;137574;-62
2021/09/21 01:59:47;;;;;;;6.90;2.50;;;;;;;7.65;79.42;99264.85;116260;1203;22472;-62
2021/09/21 02:02:15;;;;;;;5.70;2.50;;;;;;;7.64;79.48;99265.60;116131;1203;138691;-61
2021/09/21 02:04:44;;;;;;;3.50;2.20;;;;;;;7.61;79.26;99268.87;116180;1203;22333;-62
2021/09/21 02:07:12;;;;;;;3.50;2.30;;;;;;;7.57;79.24;99270.56;116272;1203;22313;-62
2021/09/21 02:09:40;;;;;;;2.60;2.10;;;;;;;7.52;79.36;99269.33;116116;1203;137492;-61
2021/09/21 02:12:08;;;;;;;6.30;2.30;;;;;;;7.49;79.61;99270.22;116255;1197;23008;-61
2021/09/21 02:14:36;;;;;;;6.50;2.20;;;;;;;7.49;79.81;99275.64;116109;1203;138110;-61
2021/09/21 02:17:04;;;;;;;4.70;2.40;;;;;;;7.51;79.80;99277.66;116303;1203;22403;-59
2021/09/21 02:19:33;;;;;;;3.10;2.40;;;;;;;7.51;79.84;99276.48;116199;1203;22324;-59
2021/09/21 02:22:09;;;;;;;2.90;2.00;;;;;;;7.51;79.85;99277.61;116123;1203;138590;-59
2021/09/21 02:24:37;;;;;;;4.30;2.90;;;;;;;7.51;79.75;99279.40;116231;1203;22239;-59
2021/09/21 02:27:05;;;;;;;3.40;2.40;;;;;;;7.52;79.80;99278.00;116130;1203;137543;-60
2021/09/21 02:29:34;;;;;;;5.70;2.50;;;;;;;7.53;79.96;99279.27;116303;1203;22321;-60
2021/09/21 02:32:03;;;;;;;3.00;2.20;;;;;;;7.53;79.81;99277.77;116210;1203;22239;-60
2021/09/21 02:34:31;;;;;;;2.50;2.30;;;;;;;7.52;79.78;99273.29;116235;1203;140065;-60
2021/09/21 02:36:59;;;;;;;4.60;2.60;;;;;;;7.55;79.75;99278.52;116732;1199;23169;-60
2021/09/21 02:39:28;;;;;;;2.60;2.10;;;;;;;7.56;79.60;99278.84;116713;1199;138195;-60
2021/09/21 02:42:15;;;;;;;;;;;;;;;7.55;79.49;99279.77;116824;1199;23067;-60
2021/09/21 02:44:43;;;;;;;3.80;2.00;;;;;;;7.55;79.56;99283.39;116703;1199;125135;-60
2021/09/21 02:47:11;;;;;;;5.50;2.00;;;;;;;7.55;79.37;99279.86;116813;1200;22367;-60
2021/09/21 02:49:56;;;;;;;3.80;2.20;;;;;;;7.54;79.46;99276.52;116736;1200;22230;-60
2021/09/21 02:52:24;;;;;;;4.60;2.10;;;;;;;7.53;79.42;99278.36;116725;1199;137453;-60
2021/09/21 02:54:52;;;;;;;4.20;2.90;;;;;;;7.52;79.28;99276.70;116807;1200;22326;-60
2021/09/21 02:57:21;;;;;;;4.30;1.90;;;;;;;7.51;79.41;99278.43;116603;1200;138998;-63
2021/09/21 02:59:49;;;;;;;5.30;2.00;;;;;;;7.51;79.34;99282.61;116848;1200;23232;-62
2021/09/21 03:02:17;;;;;;;2.70;1.80;;;;;;;7.53;79.43;99279.81;116642;1199;138472;-62
2021/09/21 03:04:53;;;;;;;2.70;1.90;;;;;;;7.54;79.21;99281.13;116769;1199;22338;-63
2021/09/21 03:10:25;;;;;;;4.50;2.20;;;;;;;7.52;78.98;99282.99;116113;1198;138107;-62
2021/09/21 03:13:27;;;;;;;1.80;1.60;;;;;;;7.50;78.95;99284.22;116218;1203;22267;-63
2021/09/21 03:18:49;;;;;;;2.40;1.70;;;;;;;7.42;79.01;99282.52;116236;1203;22378;-61
2021/09/21 03:21:20;;;;;;;2.70;1.80;;;;;;;7.43;78.89;99287.94;116066;1203;137657;-62
2021/09/21 03:23:52;;;;;;;3.20;2.00;;;;;;;7.40;79.03;99289.90;116188;1203;22384;-61
2021/09/21 03:26:21;;;;;;;1.70;1.60;;;;;;;7.39;79.03;99285.38;116073;1203;138534;-61
2021/09/21 03:28:49;;;;;;;2.30;1.60;;;;;;;7.39;78.99;99286.08;116234;1203;22331;-62
2021/09/21 03:31:18;;;;;;;5.30;2.00;;;;;;;7.41;78.86;99287.47;116170;1203;22309;-61
2021/09/21 03:33:46;;;;;;;6.20;1.60;;;;;;;7.39;79.06;99289.92;116122;1203;137958;-61
2021/09/21 03:36:14;;;;;;;1.90;1.60;;;;;;;7.38;79.01;99290.94;116181;1192;25468;-61
2021/09/21 03:38:42;;;;;;;3.30;1.90;;;;;;;7.39;79.10;99289.27;116136;1202;139326;-62
2021/09/21 03:41:26;;;;;;;1.60;1.40;;;;;;;7.40;78.89;99291.66;116233;1203;23171;-62
2021/09/21 03:43:55;;;;;;;1.70;1.50;;;;;;;7.41;78.72;99292.30;116227;1203;22365;-62
2021/09/21 03:46:23;;;;;;;2.10;1.50;;;;;;;7.39;78.54;99291.50;116140;1202;137694;-62
2021/09/21 03:48:54;;;;;;;2.00;1.40;;;;;;;7.40;78.60;99286.36;116775;1199;22313;-62
2021/09/21 03:51:22;;;;;;;2.20;1.60;;;;;;;7.38;78.40;99287.31;116699;1199;138487;-63
2021/09/21 03:53:50;;;;;;;5.70;1.60;;;;;;;7.38;78.42;99284.81;116753;1199;22245;-63
2021/09/21 03:56:19;;;;;;;2.10;1.60;;;;;;;7.36;78.31;99284.98;114726;1199;137716;-62
2021/09/21 03:58:47;;;;;;;2.00;1.50;;;;;;;7.34;77.84;99281.23;112325;1200;24037;-61
2021/09/21 04:01:15;;;;;;;2.00;1.50;;;;;;;7.30;78.06;99282.55;116608;1196;23008;-62
2021/09/21 04:03:44;;;;;;;3.20;1.40;;;;;;;7.28;78.02;99283.60;116673;1200;137465;-62
2021/09/21 04:06:13;;;;;;;1.80;1.40;;;;;;;7.27;77.96;99284.45;116752;1200;23507;-62
2021/09/21 04:08:41;;;;;;;3.90;1.60;;;;;;;7.26;77.93;99284.09;116706;1200;137698;-62
2021/09/21 04:11:09;;;;;;;2.10;1.70;;;;;;;7.23;78.12;99284.14;116814;1199;22758;-63
2021/09/21 04:13:37;;;;;;;4.70;1.80;;;;;;;7.21;78.10;99287.32;116718;1200;22541;-63
2021/09/21 04:16:05;;;;;;;2.10;1.70;;;;;;;7.19;78.36;99287.14;116662;1199;137548;-62
2021/09/21 04:18:33;;;;;;;4.40;1.80;;;;;;;7.18;78.29;99290.79;116754;1199;22313;-62
2021/09/21 04:21:01;;;;;;;2.90;1.90;;;;;;;7.18;78.59;99294.25;116680;1200;137503;-62
2021/09/21 04:23:29;;;;;;;3.30;1.80;;;;;;;7.18;78.48;99294.80;116680;1199;22205;-62
2021/09/21 04:25:57;;;;;;;2.10;1.50;;;;;;;7.19;78.57;99294.82;116824;1199;22341;-63
2021/09/21 04:28:26;;;;;;;3.60;2.10;;;;;;;7.20;78.39;99293.37;116625;1199;137908;-62
2021/09/21 04:30:56;;;;;;;3.20;2.50;;;;;;;7.20;78.36;99292.63;116759;1199;23028;-60
2021/09/21 04:33:24;;;;;;;3.40;2.00;;;;;;;7.20;78.52;99292.95;116575;1200;138985;-62
2021/09/21 04:35:53;;;;;;;4.70;1.70;;;;;;;7.22;78.59;99291.72;116810;1200;23108;-62
2021/09/21 04:38:21;;;;;;;3.70;2.00;;;;;;;7.23;78.90;99284.25;116635;1199;137623;-61
2021/09/21 04:40:49;;;;;;;2.80;2.30;;;;;;;7.24;78.79;99288.30;116813;1199;22138;-62
2021/09/21 04:43:17;;;;;;;4.60;2.10;;;;;;;7.23;78.78;99284.52;116791;1200;22314;-62
2021/09/21 04:45:46;;;;;;;3.00;1.70;;;;;;;7.23;79.19;99281.15;116581;1200;137565;-63
2021/09/21 04:48:14;;;;;;;3.20;1.70;;;;;;;7.23;79.06;99284.64;116752;1193;23297;-62
2021/09/21 04:50:42;;;;;;;5.20;2.40;;;;;;;7.24;79.29;99285.89;116643;1200;139544;-61
2021/09/21 04:53:10;;;;;;;3.50;2.50;;;;;;;7.24;79.38;99286.21;116755;1199;22281;-62
2021/09/21 04:55:38;;;;;;;4.30;2.30;;;;;;;7.25;79.72;99288.08;116722;1200;22804;-62
2021/09/21 04:58:07;;;;;;;4.30;2.30;;;;;;;7.22;79.51;99287.11;116653;1200;139076;-62
2021/09/21 05:00:35;;;;;;;3.80;2.10;;;;;;;7.19;79.50;99290.86;116747;1200;22376;-62
2021/09/21 05:03:03;;;;;;;3.20;1.80;;;;;;;7.18;79.59;99289.48;116634;1200;137565;-62
2021/09/21 05:05:32;;;;;;;3.90;2.10;;;;;;;7.19;79.86;99288.81;116703;1200;22425;-60
2021/09/21 05:08:19;;;;;;;6.00;2.80;;;;;;;7.20;79.83;99292.78;116648;1193;137662;-60
2021/09/21 05:10:47;;;;;;;3.40;1.90;;;;;;;7.20;79.86;99290.23;116742;1200;22354;-60
2021/09/21 05:13:17;;;;;;;6.30;1.50;;;;;;;7.20;79.73;99289.20;116677;1199;22213;-60
2021/09/21 05:15:46;;;;;;;3.30;1.90;;;;;;;7.20;79.66;99291.80;116611;1199;137559;-60
2021/09/21 05:18:15;;;;;;;6.80;2.50;;;;;;;7.21;79.46;99294.96;116750;1199;22278;-60
2021/09/21 05:20:44;;;;;;;3.40;1.50;;;;;;;7.20;79.36;99292.95;116684;1199;137823;-60
2021/09/21 05:23:12;;;;;;;2.50;1.90;;;;;;;7.22;79.30;99295.29;116734;1199;22899;-60
2021/09/21 05:25:40;;;;;;;3.90;2.20;;;;;;;7.22;79.12;99296.22;116784;1200;22320;-60
2021/09/21 05:28:08;;;;;;;5.00;2.00;;;;;;;7.22;79.15;99295.40;116727;1199;138524;-60
2021/09/21 05:30:38;;;;;;;4.20;1.90;;;;;;;7.22;78.85;99291.39;116696;1200;22321;-60
2021/09/21 05:33:06;;;;;;;2.90;1.70;;;;;;;7.20;78.65;99295.70;116645;1200;138373;-60
2021/09/21 05:35:35;;;;;;;5.90;2.50;;;;;;;7.17;78.71;99296.18;116725;1200;22276;-62
2021/09/21 05:38:03;;;;;;;5.80;1.80;;;;;;;7.19;78.84;99291.02;116720;1199;22388;-62
2021/09/21 05:40:31;;;;;;;5.80;1.90;;;;;;;7.20;78.73;99289.63;116597;1200;138667;-63
2021/09/21 05:43:00;;;;;;;6.10;2.50;;;;;;;7.20;78.73;99292.13;116696;1200;22325;-62
2021/09/21 05:45:28;;;;;;;2.30;1.70;;;;;;;7.19;78.78;99292.39;116654;1200;138525;-62
2021/09/21 05:48:01;;;;;;;2.40;1.20;;;;;;;7.20;78.65;99290.95;116715;1199;22250;-61
2021/09/21 05:50:29;;;;;;;3.20;1.50;;;;;;;7.23;78.42;99289.94;116632;1200;138160;-62
2021/09/21 05:52:57;;;;;;;3.10;1.30;;;;;;;7.25;78.36;99291.61;116534;1199;22247;-62
2021/09/21 05:55:28;;;;;;;2.10;1.40;;;;;;;7.27;78.27;99292.58;116692;1201;22308;-62
2021/09/21 05:57:56;;;;;;;1.60;1.30;;;;;;;7.28;78.05;99293.26;116503;1200;137902;-62
2021/09/21 06:00:25;;;;;;;4.30;1.60;;;;;;;7.30;78.12;99289.17;116796;1200;22540;-62
2021/09/21 06:02:53;;;;;;;2.40;1.60;;;;;;;7.32;77.52;99289.55;116870;1197;137903;-62
2021/09/21 06:05:22;;;;;;;3.50;1.90;;;;;;;7.36;77.66;99289.17;116940;1199;22375;-62
2021/09/21 06:07:51;;;;;;;5.50;2.20;;;;;;;7.41;77.81;99286.71;117040;1198;22382;-62
2021/09/21 06:10:22;;;;;;;7.10;2.00;;;;;;;7.47;77.94;99287.59;116961;1193;137616;-61
2021/09/21 06:14:29;;;;;;;3.60;1.10;;;;;;;7.50;77.68;99284.94;110996;1215;544901;-62
2021/09/21 06:16:57;;;;;;;4.80;1.80;;;;;;;7.47;78.00;99290.69;111969;1200;25429;-62
2021/09/21 06:19:26;;;;;;;5.10;1.60;;;;;;;7.48;78.32;99291.72;116118;1204;22152;-62
2021/09/21 06:21:55;;;;;;;4.30;2.00;;;;;;;7.48;78.32;99290.80;116134;1189;137875;-62
2021/09/21 06:24:23;;;;;;;4.60;2.30;;;;;;;7.45;78.32;99294.17;116165;1190;23248;-62
2021/09/21 06:26:51;;;;;;;6.00;3.10;;;;;;;7.44;78.41;99291.66;115994;1199;137983;-63
2021/09/21 06:29:19;;;;;;;13.90;5.80;;;;;;;7.43;78.82;99294.30;116170;1204;22152;-63
2021/09/21 06:31:50;;;;;;;12.50;4.50;;;;;;;7.43;78.80;99296.46;116112;1204;23107;-63
2021/09/21 06:34:18;;;;;;;16.20;7.50;;;;;;;7.43;78.67;99295.70;116088;1204;138228;-63
2021/09/21 06:36:46;;;;;;;13.90;6.20;;;;;;;7.43;78.93;99299.48;116148;1204;22306;-61
2021/09/21 06:39:14;;;;;;;18.70;6.70;;;;;;;7.42;78.78;99296.77;116022;1205;138567;-61
2021/09/21 06:41:42;;;;;;;15.90;7.00;;;;;;;7.45;78.94;99295.35;116184;1199;22297;-62
2021/09/21 06:44:11;;;;;;;16.10;5.40;;;;;;;7.47;78.72;99297.29;116145;1203;140282;-61
2021/09/21 06:46:39;;;;;;;16.10;5.90;;;;;;;7.48;78.66;99299.21;116209;1204;22307;-62
2021/09/21 06:49:07;;;;;;;7.00;3.10;;;;;;;7.51;78.81;99301.32;116117;1204;22369;-61
2021/09/21 06:51:36;;;;;;;6.40;3.60;;;;;;;7.55;78.56;99302.30;116042;1204;138696;-61
2021/09/21 06:54:05;;;;;;;4.50;2.60;;;;;;;7.58;78.42;99302.36;116186;1204;22422;-61
2021/09/21 06:56:33;;;;;;;5.50;2.90;;;;;;;7.60;78.34;99302.67;116071;1205;138311;-62
2021/09/21 06:59:01;;;;;;;2.10;1.60;;;;;;;7.64;78.41;99308.43;116162;1205;23125;-62
2021/09/21 07:01:29;;;;;;;6.50;2.10;;;;;;;7.66;77.84;99307.75;116230;1204;22323;-62
2021/09/21 07:03:57;;;;;;;3.30;1.20;;;;;;;7.65;77.38;99311.87;116052;1205;138291;-62
2021/09/21 07:06:25;;;;;;;3.20;1.50;;;;;;;7.62;77.16;99317.86;116178;1204;22196;-61
2021/09/21 07:08:53;;;;;;;3.30;1.30;;;;;;;7.61;77.00;99319.84;116118;1205;137806;-61
2021/09/21 07:11:22;;;;;;;3.40;1.60;;;;;;;7.60;77.00;99317.41;116128;1204;22326;-61
2021/09/21 07:13:54;;;;;;;4.60;1.40;;;;;;;7.60;76.89;99324.96;116140;1204;22259;-62
2021/09/21 07:16:22;;;;;;;1.90;1.30;;;;;;;7.59;76.74;99325.22;116082;1204;138082;-62
2021/09/21 07:18:50;;;;;;;1.50;1.10;;;;;;;7.58;76.68;99325.46;116220;1204;23131;-62
2021/09/21 07:21:18;;;;;;;2.10;1.30;;;;;;;7.58;76.54;99327.20;116089;1205;137145;-62
2021/09/21 07:23:49;;;;;;;6.40;1.70;;;;;;;7.59;76.53;99329.23;116276;1204;23685;-62
2021/09/21 07:26:17;;;;;;;2.50;1.50;;;;;;;7.59;76.46;99334.12;116019;1204;138919;-62
2021/09/21 07:28:45;;;;;;;2.00;1.20;;;;;;;7.59;76.34;99331.45;116242;1198;23346;-62
2021/09/21 07:31:16;;;;;;;2.40;1.40;;;;;;;7.61;76.59;99331.60;116207;1204;23405;-61
2021/09/21 07:33:46;;;;;;;1.30;1.10;;;;;;;7.60;76.33;99325.56;116060;1190;138851;-61
2021/09/21 07:36:14;;;;;;;1.60;1.20;;;;;;;7.63;76.27;99330.49;116228;1204;22382;-61
2021/09/21 07:38:43;;;;;;;2.30;1.20;;;;;;;7.64;76.21;99331.92;116114;1204;137862;-62
2021/09/21 07:41:11;;;;;;;3.20;1.00;;;;;;;7.65;76.20;99332.91;116210;1204;22204;-62
2021/09/21 07:43:40;;;;;;;4.00;1.10;;;;;;;7.67;75.72;99326.75;116258;1204;22978;-62
2021/09/21 07:46:08;;;;;;;2.60;1.20;;;;;;;7.68;75.69;99331.64;116121;1204;137848;-61
2021/09/21 07:48:37;;;;;;;2.60;1.50;;;;;;;7.67;75.67;99329.20;116269;1204;23065;-62
2021/09/21 07:51:05;;;;;;;2.80;1.50;;;;;;;7.69;75.62;99330.88;116157;1204;136728;-62
2021/09/21 07:53:34;;;;;;;2.60;1.20;;;;;;;7.70;75.66;99331.36;116124;1204;22216;-62
2021/09/21 07:56:02;;;;;;;2.70;1.60;;;;;;;7.69;75.60;99334.92;116226;1204;23228;-61
2021/09/21 07:58:49;;;;;;;2.30;1.60;;;;;;;7.69;75.54;99335.70;116108;1204;136766;-61
2021/09/21 08:01:17;;;;;;;5.60;2.90;;;;;;;7.70;75.51;99336.85;116251;1203;22366;-62
2021/09/21 08:03:47;;;;;;;4.00;1.50;;;;;;;7.71;75.45;99332.48;116106;1204;139056;-61
2021/09/21 08:06:15;;;;;;;4.00;1.60;;;;;;;7.71;75.54;99337.20;116215;1203;22227;-61
2021/09/21 08:08:45;;;;;;;3.90;1.30;;;;;;;7.71;75.43;99334.75;116083;1204;137604;-61
2021/09/21 08:11:14;;;;;;;3.70;1.50;;;;;;;7.69;75.39;99334.83;116217;1203;23108;-62
2021/09/21 08:13:44;;;;;;;1.90;1.30;;;;;;;7.70;75.59;99336.64;116266;1203;22183;-61
2021/09/21 08:16:23;;;;;;;3.70;1.20;;;;;;;7.73;75.73;99339.46;116096;1204;137623;-59
2021/09/21 08:18:52;;;;;;;1.50;1.10;;;;;;;7.76;76.12;99336.27;116182;1204;22357;-59
2021/09/21 08:21:20;;;;;;;4.10;1.60;;;;;;;7.79;76.02;99332.30;116118;1204;138095;-58
2021/09/21 08:23:49;;;;;;;8.50;1.80;;;;;;;7.83;76.17;99332.09;116436;1201;22317;-59
2021/09/21 08:26:17;;;;;;;5.80;2.00;;;;;;;7.86;76.16;99331.53;116492;1203;22305;-59
2021/09/21 08:28:46;;;;;;;4.50;2.00;;;;;;;7.86;76.01;99335.89;116364;1202;137178;-59
2021/09/21 08:31:14;;;;;;;4.80;2.30;;;;;;;7.85;75.87;99329.91;116325;1202;22326;-59
2021/09/21 08:33:46;;;;;;;5.80;2.40;;;;;;;7.86;75.96;99330.19;116378;1202;137356;-59
2021/09/21 08:36:22;;;;;;;10.50;3.50;;;;;;;7.86;75.92;99329.32;116444;1201;22347;-59
2021/09/21 08:38:55;;;;;;;2.30;1.50;;;;;;;7.82;75.74;99332.35;116431;1202;136939;-61
2021/09/21 08:41:25;;;;;;;3.70;1.90;;;;;;;7.83;75.98;99335.13;116312;1203;22343;-59
2021/09/21 08:43:54;;;;;;;5.80;1.90;;;;;;;7.85;75.98;99334.39;116270;1203;22340;-59
2021/09/21 08:46:34;;;;;;;2.40;1.30;;;;;;;7.86;75.95;99334.20;116409;1203;137325;-61
2021/09/21 08:49:03;;;;;;;2.30;1.40;;;;;;;7.88;76.06;99334.47;116448;1203;22336;-62
2021/09/21 08:51:31;;;;;;;2.40;1.30;;;;;;;7.95;76.22;99336.69;116428;1196;137099;-61
2021/09/21 08:54:03;;;;;;;6.80;1.20;;;;;;;8.00;76.31;99333.80;116454;1202;22301;-62
2021/09/21 08:56:32;;;;;;;3.10;1.50;;;;;;;8.04;75.75;99337.56;116320;1203;137279;-62
2021/09/21 08:59:05;;;;;;;3.60;1.40;;;;;;;8.07;75.56;99337.78;116453;1201;23152;-62
2021/09/21 09:01:41;;;;;;;3.80;1.60;;;;;;;8.07;75.08;99338.64;116450;1203;22314;-62
2021/09/21 09:04:10;;;;;;;3.40;1.50;;;;;;;8.08;74.69;99337.56;116220;1202;136596;-62
2021/09/21 09:06:45;;;;;;;2.00;1.30;;;;;;;8.11;74.56;99337.66;116448;1203;23302;-62
2021/09/21 09:09:14;;;;;;;1.60;1.10;;;;;;;8.14;74.52;99344.83;116391;1202;136907;-62
2021/09/21 09:11:55;;;;;;;6.20;1.60;;;;;;;8.17;74.46;99345.59;116540;1203;22413;-62
2021/09/21 09:14:28;;;;;;;3.00;1.40;;;;;;;8.18;74.05;99348.96;116507;1202;22333;-62
2021/09/21 09:16:58;;;;;;;2.60;1.40;;;;;;;8.18;74.23;99350.11;116134;1204;138069;-61
2021/09/21 09:19:31;;;;;;;2.50;1.50;;;;;;;8.20;73.94;99347.75;116434;1202;22258;-62
2021/09/21 09:22:05;;;;;;;5.30;1.70;;;;;;;8.19;73.48;99351.15;116361;1202;139103;-62
2021/09/21 09:24:46;;;;;;;3.50;1.40;;;;;;;8.14;73.33;99349.77;116535;1201;22413;-62
2021/09/21 09:27:19;;;;;;;3.80;1.40;;;;;;;8.14;73.40;99354.55;116384;1196;138050;-63
2021/09/21 09:29:59;;;;;;;3.70;1.60;;;;;;;8.14;73.29;99355.58;116195;1203;22504;-62
2021/09/21 09:32:27;;;;;;;3.80;1.80;;;;;;;8.14;73.33;99357.04;116378;1203;23404;-63
2021/09/21 09:34:59;;;;;;;6.80;2.20;;;;;;;8.14;73.34;99354.38;116255;1202;137112;-62
2021/09/21 09:37:37;;;;;;;6.00;2.80;;;;;;;8.14;73.17;99354.07;116209;1202;22332;-63
2021/09/21 09:40:09;;;;;;;3.60;2.00;;;;;;;8.15;73.26;99353.14;116200;1189;138144;-63
2021/09/21 09:42:41;;;;;;;1.90;1.40;;;;;;;8.15;73.06;99354.23;116492;1200;22392;-64
2021/09/21 09:45:10;;;;;;;2.70;2.00;;;;;;;8.15;73.16;99354.19;116203;1203;138213;-62
2021/09/21 09:47:48;;;;;;;2.30;1.40;;;;;;;8.15;72.91;99355.48;116474;1202;22396;-62
2021/09/21 09:50:17;;;;;;;2.00;1.60;;;;;;;8.13;73.07;99358.00;116506;1201;22298;-62
2021/09/21 09:52:46;;;;;;;2.40;1.30;;;;;;;8.10;73.00;99359.36;116380;1202;137461;-63
2021/09/21 09:55:18;;;;;;;1.60;1.30;;;;;;;8.11;73.14;99362.03;116408;1202;22307;-63
2021/09/21 09:57:46;;;;;;;2.50;1.40;;;;;;;8.12;73.33;99363.24;116147;1203;137660;-62
2021/09/21 10:00:18;;;;;;;1.50;1.40;;;;;;;8.11;73.23;99360.67;116220;1203;22289;-62
2021/09/21 10:02:46;;;;;;;1.00;0.80;;;;;;;8.11;73.06;99364.76;116392;1202;138970;-63
2021/09/21 10:05:14;;;;;;;3.80;1.50;;;;;;;8.10;72.85;99363.42;116251;1203;23546;-62
2021/09/21 10:07:42;;;;;;;2.00;1.40;;;;;;;8.10;72.82;99361.19;116445;1202;22333;-62
2021/09/21 10:10:10;;;;;;;1.90;1.30;;;;;;;8.12;73.04;99359.60;116121;1203;138448;-64
2021/09/21 10:12:40;;;;;;;3.70;1.60;;;;;;;8.16;73.33;99363.92;116319;1203;22351;-64
2021/09/21 10:15:09;;;;;;;5.00;1.60;;;;;;;8.20;72.79;99363.81;116060;1204;137996;-63
2021/09/21 10:17:47;;;;;;;3.30;1.60;;;;;;;8.20;72.92;99364.09;116250;1203;22388;-63
2021/09/21 10:20:37;;;;;;;4.50;1.70;;;;;;;8.24;72.92;99366.48;116357;1203;137838;-63
2021/09/21 10:23:07;;;;;;;3.40;1.20;;;;;;;8.27;72.83;99366.42;116228;1202;22340;-63
2021/09/21 10:25:40;;;;;;;1.90;1.10;;;;;;;8.30;72.95;99368.48;116443;1202;22389;-55
2021/09/21 10:28:38;;;;;;;1.90;1.20;;;;;;;8.31;72.67;99363.67;116168;1203;137172;-55
2021/09/21 10:31:14;;;;;;;1.10;1.00;;;;;;;8.34;72.66;99366.20;116459;1203;22364;-55
2021/09/21 10:33:42;;;;;;;2.60;1.80;;;;;;;8.37;72.29;99369.92;116011;1197;137584;-55
2021/09/21 10:36:31;;;;;;;2.20;1.50;;;;;;;8.39;72.32;99373.38;116197;1204;22394;-55
2021/09/21 10:39:07;;;;;;;9.20;1.70;;;;;;;8.41;72.42;99376.61;116094;1204;138288;-56
2021/09/21 10:41:59;;;;;;;5.10;1.80;;;;;;;8.43;72.59;99373.82;116164;1203;22398;-55
2021/09/21 10:44:28;;;;;;;4.60;1.80;;;;;;;8.45;72.71;99379.88;116225;1204;23256;-55
2021/09/21 10:47:09;;;;;;;4.40;1.40;;;;;;;8.45;72.77;99377.55;116104;1203;137866;-55
2021/09/21 10:50:13;;;;;;;;;;;;;;;8.45;72.37;99377.27;116139;1204;22524;-55
2021/09/21 10:52:41;;;;;;;2.80;1.40;;;;;;;8.42;72.45;99379.56;116081;1203;124530;-56
2021/09/21 10:55:14;;;;;;;3.20;1.60;;;;;;;8.39;72.41;99382.01;116691;1199;22307;-55
2021/09/21 10:57:44;;;;;;;3.90;1.50;;;;;;;8.39;72.63;99380.27;116472;1199;137749;-55
2021/09/21 11:00:17;;;;;;;2.30;1.30;;;;;;;8.39;72.32;99385.65;116582;1193;22332;-55
2021/09/21 11:02:53;;;;;;;2.60;1.80;;;;;;;8.38;72.13;99392.20;116625;1199;23451;-55
2021/09/21 11:05:26;;;;;;;2.80;1.70;;;;;;;8.32;72.00;99391.67;116682;1198;137070;-55
2021/09/21 11:07:58;;;;;;;2.40;1.50;;;;;;;8.27;72.16;99388.79;116861;1198;22526;-55
2021/09/21 11:10:37;;;;;;;2.30;1.20;;;;;;;8.23;72.23;99388.12;116577;1198;137260;-55
2021/09/21 11:13:09;;;;;;;1.80;1.40;;;;;;;8.20;72.49;99390.95;116926;1198;23339;-55
2021/09/21 11:15:58;;;;;;;1.80;1.20;;;;;;;8.21;72.48;99388.09;116688;1198;138399;-55
2021/09/21 11:18:30;;;;;;;3.60;1.50;;;;;;;8.21;72.56;99388.59;116853;1198;22422;-55
2021/09/21 11:21:04;;;;;;;3.60;1.40;;;;;;;8.22;72.65;99393.71;116933;1198;22375;-55
2021/09/21 11:23:34;;;;;;;1.80;1.40;;;;;;;8.24;72.80;99391.50;116886;1198;137823;-55
2021/09/21 11:26:04;;;;;;;2.60;1.50;;;;;;;8.27;73.02;99395.95;115344;1193;23007;-55
2021/09/21 11:28:37;;;;;;;4.30;1.70;;;;;;;8.29;72.88;99392.73;112349;1198;138576;-55
2021/09/21 11:31:06;;;;;;;3.30;2.00;;;;;;;8.30;73.09;99394.83;116937;1197;23079;-55
2021/09/21 11:33:38;;;;;;;5.50;1.70;;;;;;;8.32;72.94;99396.19;116541;1200;138268;-55
2021/09/21 11:36:11;;;;;;;6.10;1.70;;;;;;;8.33;72.70;99398.09;116994;1198;23196;-55
2021/09/21 11:38:42;;;;;;;5.10;2.00;;;;;;;8.30;72.62;99397.81;116913;1199;22279;-55
2021/09/21 11:41:21;;;;;;;8.80;6.50;;;;;;;8.30;72.52;99402.46;116889;1197;137791;-55
2021/09/21 11:43:49;;;;;;;19.50;13.30;;;;;;;8.28;72.57;99406.06;116975;1198;23418;-55
2021/09/21 11:46:30;;;;;;;21.50;13.90;;;;;;;8.29;72.70;99409.94;116922;1197;139153;-55
2021/09/21 11:48:59;;;;;;;6.50;4.10;;;;;;;8.29;72.99;99410.05;116984;1198;22417;-55
2021/09/21 11:51:29;;;;;;;10.90;6.50;;;;;;;8.32;72.93;99409.30;116894;1198;137907;-55
2021/09/21 11:53:58;;;;;;;10.10;5.40;;;;;;;8.33;72.95;99413.52;116959;1197;23302;-55
2021/09/21 11:56:26;;;;;;;23.10;12.00;;;;;;;8.33;72.90;99410.54;116968;1198;22245;-55
2021/09/21 11:58:58;;;;;;;8.00;4.20;;;;;;;8.32;72.57;99415.40;116853;1197;138366;-55